createdAt,value
2022-12-18T00:01:24.796Z,-6.31
2022-12-18T00:03:52.662Z,-6.34
2022-12-18T00:06:20.028Z,-6.35
2022-12-18T00:08:46.806Z,-6.36
2022-12-18T00:11:17.055Z,-6.38
2022-12-18T00:13:44.457Z,-6.39
2022-12-18T00:16:14.993Z,-6.41
2022-12-18T00:18:42.919Z,-6.41
2022-12-18T00:21:11.616Z,-6.41
2022-12-18T00:23:39.532Z,-6.42
2022-12-18T00:26:10.881Z,-6.42
2022-12-18T00:28:37.568Z,-6.43
2022-12-18T00:31:06.603Z,-6.46
2022-12-18T00:33:33.327Z,-6.43
2022-12-18T00:36:04.364Z,-6.46
2022-12-18T00:38:31.079Z,-6.48
2022-12-18T00:40:57.607Z,-6.50
2022-12-18T00:43:24.339Z,-6.47
2022-12-18T00:45:51.330Z,-6.48
2022-12-18T00:48:18.019Z,-6.47
2022-12-18T00:50:44.887Z,-6.41
2022-12-18T00:53:11.651Z,-6.37
2022-12-18T00:55:39.820Z,-6.41
2022-12-18T00:58:06.485Z,-6.43
2022-12-18T01:00:33.043Z,-6.46
2022-12-18T01:02:59.896Z,-6.46
2022-12-18T01:05:26.986Z,-6.45
2022-12-18T01:07:53.612Z,-6.46
2022-12-18T01:10:20.145Z,-6.47
2022-12-18T01:12:46.723Z,-6.52
2022-12-18T01:15:15.266Z,-6.52
2022-12-18T01:17:41.908Z,-6.52
2022-12-18T01:20:09.961Z,-6.51
2022-12-18T01:22:37.298Z,-6.46
2022-12-18T01:25:05.325Z,-6.44
2022-12-18T01:27:32.545Z,-6.45
2022-12-18T01:29:59.043Z,-6.45
2022-12-18T01:32:25.693Z,-6.48
2022-12-18T01:34:52.207Z,-6.48
2022-12-18T01:37:18.744Z,-6.48
2022-12-18T01:39:45.283Z,-6.50
2022-12-18T01:42:16.664Z,-6.51
2022-12-18T01:45:04.878Z,-6.51
2022-12-18T01:47:37.447Z,-6.53
2022-12-18T01:50:14.618Z,-6.53
2022-12-18T01:52:43.886Z,-6.51
2022-12-18T01:55:12.194Z,-6.51
2022-12-18T01:57:40.214Z,-6.54
2022-12-18T02:00:13.059Z,-6.51
2022-12-18T02:02:42.035Z,-6.51
2022-12-18T02:05:10.188Z,-6.53
2022-12-18T02:07:51.993Z,-6.51
2022-12-18T02:10:30.132Z,-6.48
2022-12-18T02:13:22.068Z,-6.53
2022-12-18T02:16:11.665Z,-6.54
2022-12-18T02:18:42.121Z,-6.60
2022-12-18T02:21:21.640Z,-6.54
2022-12-18T02:24:05.847Z,-6.58
2022-12-18T02:26:52.502Z,-6.63
2022-12-18T02:29:28.502Z,-6.63
2022-12-18T02:31:58.926Z,-6.54
2022-12-18T02:34:29.393Z,-6.57
2022-12-18T02:36:58.579Z,-6.52
2022-12-18T02:39:28.297Z,-6.48
2022-12-18T02:41:55.032Z,-6.55
2022-12-18T02:44:21.683Z,-6.59
2022-12-18T02:46:52.696Z,-6.62
2022-12-18T02:49:34.417Z,-6.69
2022-12-18T02:52:13.489Z,-6.67
2022-12-18T02:54:44.694Z,-6.63
2022-12-18T02:57:29.132Z,-6.68
2022-12-18T03:00:11.382Z,-6.70
2022-12-18T03:03:04.156Z,-6.79
2022-12-18T03:05:51.858Z,-6.90
2022-12-18T03:08:25.192Z,-6.95
2022-12-18T03:11:04.764Z,-6.99
2022-12-18T03:13:37.143Z,-7.12
2022-12-18T03:16:10.216Z,-7.09
2022-12-18T03:18:43.573Z,-7.13
2022-12-18T03:21:13.822Z,-7.13
2022-12-18T03:23:49.291Z,-7.04
2022-12-18T03:26:20.484Z,-7.13
2022-12-18T03:28:52.725Z,-7.06
2022-12-18T03:31:22.912Z,-7.05
2022-12-18T03:34:12.395Z,-7.11
2022-12-18T03:36:38.966Z,-7.16
2022-12-18T03:39:05.659Z,-7.13
2022-12-18T03:41:45.042Z,-7.14
2022-12-18T03:44:29.543Z,-7.15
2022-12-18T03:46:59.981Z,-7.15
2022-12-18T03:49:48.171Z,-7.15
2022-12-18T03:52:29.192Z,-7.17
2022-12-18T03:54:58.787Z,-7.13
2022-12-18T03:57:30.689Z,-7.15
2022-12-18T04:00:01.680Z,-7.08
2022-12-18T04:02:29.892Z,-7.05
2022-12-18T04:05:01.556Z,-7.08
2022-12-18T04:07:28.673Z,-7.09
2022-12-18T04:09:59.408Z,-7.08
2022-12-18T04:12:27.276Z,-7.08
2022-12-18T04:14:53.783Z,-7.08
2022-12-18T04:17:20.499Z,-7.08
2022-12-18T04:19:47.001Z,-7.12
2022-12-18T04:22:13.797Z,-7.11
2022-12-18T04:24:40.295Z,-7.11
2022-12-18T04:27:07.110Z,-7.14
2022-12-18T04:29:33.622Z,-7.13
2022-12-18T04:32:00.172Z,-7.18
2022-12-18T04:34:26.820Z,-7.15
2022-12-18T04:36:53.373Z,-7.19
2022-12-18T04:39:19.882Z,-7.24
2022-12-18T04:41:46.407Z,-7.24
2022-12-18T04:44:12.931Z,-7.28
2022-12-18T04:46:39.559Z,-7.24
2022-12-18T04:49:06.202Z,-7.25
2022-12-18T04:51:32.753Z,-7.31
2022-12-18T04:53:59.216Z,-7.29
2022-12-18T04:56:25.696Z,-7.29
2022-12-18T04:58:52.243Z,-7.37
2022-12-18T05:01:19.262Z,-7.40
2022-12-18T05:03:46.400Z,-7.45
2022-12-18T05:06:13.037Z,-7.57
2022-12-18T05:08:39.786Z,-7.71
2022-12-18T05:11:08.625Z,-7.71
2022-12-18T05:13:36.594Z,-7.67
2022-12-18T05:16:04.154Z,-7.72
2022-12-18T05:18:31.427Z,-7.78
2022-12-18T05:20:57.965Z,-7.84
2022-12-18T05:23:25.716Z,-7.92
2022-12-18T05:25:57.458Z,-8.03
2022-12-18T05:28:25.709Z,-8.04
2022-12-18T05:30:54.245Z,-8.07
2022-12-18T05:33:23.149Z,-7.98
2022-12-18T05:35:57.233Z,-7.97
2022-12-18T05:38:25.673Z,-7.97
2022-12-18T05:40:52.984Z,-7.98
2022-12-18T05:43:21.543Z,-8.04
2022-12-18T05:45:48.922Z,-8.13
2022-12-18T05:48:16.025Z,-8.00
2022-12-18T05:50:46.480Z,-7.97
2022-12-18T05:53:14.715Z,-8.06
2022-12-18T05:55:42.637Z,-8.02
2022-12-18T05:58:10.776Z,-8.03
2022-12-18T06:00:42.356Z,-8.04
2022-12-18T06:03:10.636Z,-7.98
2022-12-18T06:05:42.800Z,-7.99
2022-12-18T06:08:10.001Z,-7.95
2022-12-18T06:10:36.695Z,-7.94
2022-12-18T06:13:03.636Z,-7.90
2022-12-18T06:15:30.135Z,-7.96
2022-12-18T06:17:56.732Z,-8.01
2022-12-18T06:20:23.411Z,-7.99
2022-12-18T06:22:50.230Z,-8.04
2022-12-18T06:25:17.099Z,-8.07
2022-12-18T06:27:44.472Z,-8.10
2022-12-18T06:30:11.904Z,-8.10
2022-12-18T06:32:39.114Z,-8.05
2022-12-18T06:35:06.229Z,-8.01
2022-12-18T06:37:32.871Z,-7.97
2022-12-18T06:39:59.442Z,-7.98
2022-12-18T06:42:26.213Z,-7.89
2022-12-18T06:44:52.801Z,-7.85
2022-12-18T06:47:19.654Z,-7.85
2022-12-18T06:49:46.544Z,-7.88
2022-12-18T06:52:13.026Z,-7.88
2022-12-18T06:54:39.559Z,-7.86
2022-12-18T06:57:06.066Z,-7.91
2022-12-18T06:59:32.611Z,-7.94
2022-12-18T07:01:59.268Z,-7.88
2022-12-18T07:04:33.065Z,-7.86
2022-12-18T07:06:59.555Z,-7.83
2022-12-18T07:09:26.206Z,-7.84
2022-12-18T07:11:53.391Z,-7.78
2022-12-18T07:14:20.234Z,-7.87
2022-12-18T07:16:47.044Z,-7.96
2022-12-18T07:19:13.605Z,-7.97
2022-12-18T07:21:40.315Z,-7.96
2022-12-18T07:24:07.252Z,-7.99
2022-12-18T07:26:34.134Z,-7.98
2022-12-18T07:29:00.665Z,-7.94
2022-12-18T07:31:27.741Z,-7.91
2022-12-18T07:33:54.385Z,-7.91
2022-12-18T07:36:21.065Z,-7.94
2022-12-18T07:38:48.560Z,-7.97
2022-12-18T07:41:15.571Z,-7.97
2022-12-18T07:43:43.498Z,-7.90
2022-12-18T07:46:13.201Z,-7.92
2022-12-18T07:48:41.208Z,-7.90
2022-12-18T07:51:08.706Z,-7.97
2022-12-18T07:53:37.008Z,-7.96
2022-12-18T07:56:26.488Z,-8.01
2022-12-18T07:58:53.496Z,-8.00
2022-12-18T08:01:20.577Z,-8.05
2022-12-18T08:03:47.897Z,-7.99
2022-12-18T08:06:15.094Z,-7.95
2022-12-18T08:08:43.215Z,-7.90
2022-12-18T08:11:10.007Z,-7.81
2022-12-18T08:13:36.679Z,-7.83
2022-12-18T08:16:06.515Z,-7.81
2022-12-18T08:18:34.357Z,-7.80
2022-12-18T08:21:22.162Z,-7.81
2022-12-18T08:23:51.319Z,-7.81
2022-12-18T08:26:18.766Z,-7.78
2022-12-18T08:28:45.723Z,-7.71
2022-12-18T08:31:12.756Z,-7.74
2022-12-18T08:33:40.867Z,-7.79
2022-12-18T08:36:10.441Z,-7.80
2022-12-18T08:38:37.053Z,-7.78
2022-12-18T08:41:09.169Z,-7.80
2022-12-18T08:43:54.604Z,-7.82
2022-12-18T08:46:23.257Z,-7.83
2022-12-18T08:48:52.121Z,-7.75
2022-12-18T08:51:19.260Z,-7.74
2022-12-18T08:53:46.170Z,-7.78
2022-12-18T08:56:14.201Z,-7.78
2022-12-18T08:58:41.360Z,-7.76
2022-12-18T09:01:11.154Z,-7.75
2022-12-18T09:03:38.802Z,-7.76
2022-12-18T09:06:06.105Z,-7.71
2022-12-18T09:08:32.616Z,-7.64
2022-12-18T09:10:59.143Z,-7.53
2022-12-18T09:13:25.641Z,-7.43
2022-12-18T09:15:54.419Z,-7.34
2022-12-18T09:18:22.570Z,-7.27
2022-12-18T09:20:49.242Z,-7.20
2022-12-18T09:23:15.766Z,-7.18
2022-12-18T09:25:42.577Z,-7.13
2022-12-18T09:28:17.840Z,-7.07
2022-12-18T09:30:50.664Z,-7.00
2022-12-18T09:33:18.042Z,-6.93
2022-12-18T09:35:45.971Z,-6.87
2022-12-18T09:38:15.040Z,-6.73
2022-12-18T09:40:53.001Z,-6.67
2022-12-18T09:43:44.372Z,-6.61
2022-12-18T09:46:18.885Z,-6.51
2022-12-18T09:48:49.143Z,-6.45
2022-12-18T09:51:36.175Z,-6.37
2022-12-18T09:54:12.676Z,-6.29
2022-12-18T09:56:43.037Z,-6.20
2022-12-18T09:59:22.514Z,-6.09
2022-12-18T10:01:49.328Z,-6.03
2022-12-18T10:04:16.045Z,-5.96
2022-12-18T10:06:53.745Z,-5.87
2022-12-18T10:09:25.878Z,-5.78
2022-12-18T10:12:19.772Z,-5.71
2022-12-18T10:15:03.280Z,-5.64
2022-12-18T10:17:44.195Z,-5.56
2022-12-18T10:20:14.189Z,-5.49
2022-12-18T10:22:40.634Z,-5.40
2022-12-18T10:25:20.845Z,-5.33
2022-12-18T10:27:47.716Z,-5.28
2022-12-18T10:30:21.230Z,-5.21
2022-12-18T10:32:48.200Z,-5.12
2022-12-18T10:35:32.709Z,-5.03
2022-12-18T10:38:07.741Z,-5.02
2022-12-18T10:40:50.601Z,-4.98
2022-12-18T10:43:21.785Z,-4.92
2022-12-18T10:46:01.276Z,-4.90
2022-12-18T10:48:50.067Z,-4.85
2022-12-18T10:51:27.496Z,-4.77
2022-12-18T10:54:06.473Z,-4.70
2022-12-18T10:56:36.715Z,-4.62
2022-12-18T10:59:06.117Z,-4.53
2022-12-18T11:01:56.577Z,-4.44
2022-12-18T11:04:28.907Z,-4.41
2022-12-18T11:06:59.085Z,-4.37
2022-12-18T11:09:30.098Z,-4.27
2022-12-18T11:12:00.126Z,-4.22
2022-12-18T11:14:47.542Z,-4.16
2022-12-18T11:17:26.100Z,-4.07
2022-12-18T11:19:58.845Z,-4.02
2022-12-18T11:22:28.914Z,-3.97
2022-12-18T11:27:58.400Z,-3.91
2022-12-18T11:30:35.623Z,-3.88
2022-12-18T11:33:18.621Z,-3.82
2022-12-18T11:36:03.749Z,-3.77
2022-12-18T11:38:41.268Z,-3.73
2022-12-18T11:42:02.338Z,-3.69
2022-12-18T11:44:59.294Z,-3.63
2022-12-18T11:47:34.946Z,-3.58
2022-12-18T11:50:04.221Z,-3.51
2022-12-18T11:52:41.967Z,-3.48
2022-12-18T11:55:17.250Z,-3.43
2022-12-18T11:57:49.628Z,-3.42
2022-12-18T12:00:25.273Z,-3.40
2022-12-18T12:03:21.816Z,-3.37
2022-12-18T12:06:11.656Z,-3.35
2022-12-18T12:08:45.395Z,-3.34
2022-12-18T12:11:29.064Z,-3.33
2022-12-18T12:14:04.414Z,-3.32
2022-12-18T12:16:42.746Z,-3.26
2022-12-18T12:19:35.080Z,-3.22
2022-12-18T12:22:19.497Z,-3.20
2022-12-18T12:25:28.062Z,-3.19
2022-12-18T12:28:09.075Z,-3.17
2022-12-18T12:31:17.051Z,-3.16
2022-12-18T12:34:02.205Z,-3.08
2022-12-18T12:36:54.935Z,-3.05
2022-12-18T12:39:31.505Z,-3.06
2022-12-18T12:42:17.113Z,-3.03
2022-12-18T12:44:54.213Z,-2.98
2022-12-18T12:47:32.303Z,-2.93
2022-12-18T12:50:03.330Z,-2.91
2022-12-18T12:52:43.661Z,-2.90
2022-12-18T12:55:18.517Z,-2.91
2022-12-18T12:58:29.208Z,-2.88
2022-12-18T13:04:07.904Z,-2.85
2022-12-18T13:06:51.338Z,-2.84
2022-12-18T13:09:18.168Z,-2.79
2022-12-18T13:12:06.532Z,-2.78
2022-12-18T13:13:43.747Z,-2.87
2022-12-18T13:14:39.307Z,-2.77
2022-12-18T13:17:21.972Z,-2.77
2022-12-18T13:20:10.835Z,-2.74
2022-12-18T13:22:37.421Z,-2.72
2022-12-18T13:25:24.726Z,-2.69
2022-12-18T13:27:59.095Z,-2.73
2022-12-18T13:30:42.867Z,-2.76
2022-12-18T13:33:15.924Z,-2.78
2022-12-18T13:36:09.803Z,-2.79
2022-12-18T13:38:39.208Z,-2.82
2022-12-18T13:41:24.917Z,-2.81
2022-12-18T13:43:54.593Z,-2.81
2022-12-18T13:46:22.037Z,-2.81
2022-12-18T13:49:06.246Z,-2.84
2022-12-18T13:51:35.382Z,-2.85
2022-12-18T13:54:22.348Z,-2.87
2022-12-18T13:56:50.071Z,-2.90
2022-12-18T13:59:33.947Z,-2.92
2022-12-18T14:02:06.831Z,-2.96
2022-12-18T14:04:36.189Z,-2.95
2022-12-18T14:07:14.960Z,-3.01
2022-12-18T14:09:47.053Z,-3.04
2022-12-18T14:12:43.494Z,-3.08
2022-12-18T14:15:21.716Z,-3.10
2022-12-18T14:17:48.910Z,-3.12
2022-12-18T14:20:16.600Z,-3.18
2022-12-18T14:22:48.565Z,-3.20
2022-12-18T14:25:21.634Z,-3.26
2022-12-18T14:27:50.717Z,-3.31
2022-12-18T14:30:47.071Z,-3.36
2022-12-18T14:33:24.880Z,-3.37
2022-12-18T14:36:02.901Z,-3.43
2022-12-18T14:38:35.813Z,-3.49
2022-12-18T14:41:12.619Z,-3.56
2022-12-18T14:43:41.948Z,-3.56
2022-12-18T14:46:27.381Z,-3.68
2022-12-18T14:48:54.592Z,-3.70
2022-12-18T14:51:23.669Z,-3.72
2022-12-18T14:53:59.446Z,-3.75
2022-12-18T14:56:28.864Z,-3.79
2022-12-18T14:59:01.321Z,-3.88
2022-12-18T15:01:38.748Z,-3.92
2022-12-18T15:04:24.268Z,-3.90
2022-12-18T15:07:04.519Z,-3.98
2022-12-18T15:09:31.184Z,-4.04
2022-12-18T15:11:59.884Z,-4.10
2022-12-18T15:14:41.341Z,-4.16
2022-12-18T15:17:21.302Z,-4.21
2022-12-18T15:19:52.414Z,-4.26
2022-12-18T15:22:35.613Z,-4.25
2022-12-18T15:25:03.446Z,-4.30
2022-12-18T15:27:36.637Z,-4.30
2022-12-18T15:30:09.128Z,-4.35
2022-12-18T15:32:37.565Z,-4.39
2022-12-18T15:35:19.703Z,-4.40
2022-12-18T15:37:46.622Z,-4.46
2022-12-18T15:40:17.554Z,-4.43
2022-12-18T15:43:02.664Z,-4.47
2022-12-18T15:45:29.177Z,-4.53
2022-12-18T15:47:57.023Z,-4.48
2022-12-18T15:50:23.706Z,-4.48
2022-12-18T15:52:53.144Z,-4.51
2022-12-18T15:55:41.114Z,-4.51
2022-12-18T15:58:10.161Z,-4.54
2022-12-18T16:00:39.951Z,-4.56
2022-12-18T16:03:07.018Z,-4.50
2022-12-18T16:05:34.143Z,-4.46
2022-12-18T16:08:00.617Z,-4.50
2022-12-18T16:10:27.550Z,-4.46
2022-12-18T16:12:54.113Z,-4.42
2022-12-18T16:15:24.533Z,-4.21
2022-12-18T16:17:52.871Z,-4.09
2022-12-18T16:20:23.525Z,-4.05
2022-12-18T16:22:50.746Z,-3.94
2022-12-18T16:25:26.147Z,-3.83
2022-12-18T16:27:55.109Z,-3.88
2022-12-18T16:30:28.747Z,-3.84
2022-12-18T16:32:59.476Z,-3.83
2022-12-18T16:35:27.394Z,-3.78
2022-12-18T16:37:53.952Z,-3.75
2022-12-18T16:40:20.911Z,-3.72
2022-12-18T16:42:47.615Z,-3.73
2022-12-18T16:45:17.851Z,-3.75
2022-12-18T16:47:45.153Z,-3.74
2022-12-18T16:50:12.340Z,-3.74
2022-12-18T16:52:39.201Z,-3.70
2022-12-18T16:55:06.179Z,-3.69
2022-12-18T16:57:32.759Z,-3.66
2022-12-18T17:00:04.720Z,-3.62
2022-12-18T17:02:32.631Z,-3.58
2022-12-18T17:05:00.048Z,-3.57
2022-12-18T17:07:28.337Z,-3.54
2022-12-18T17:09:55.496Z,-3.58
2022-12-18T17:12:23.013Z,-3.65
2022-12-18T17:14:49.851Z,-3.64
2022-12-18T17:17:22.224Z,-3.66
2022-12-18T17:19:49.545Z,-3.66
2022-12-18T17:22:16.103Z,-3.68
2022-12-18T17:24:42.578Z,-3.72
2022-12-18T17:27:09.088Z,-3.69
2022-12-18T17:29:35.902Z,-3.74
2022-12-18T17:32:02.499Z,-3.78
2022-12-18T17:34:29.992Z,-3.81
2022-12-18T17:36:57.299Z,-3.81
2022-12-18T17:39:23.814Z,-3.80
2022-12-18T17:41:50.647Z,-3.75
2022-12-18T17:44:17.719Z,-3.78
2022-12-18T17:46:44.921Z,-3.83
2022-12-18T17:49:12.132Z,-3.78
2022-12-18T17:51:38.996Z,-3.82
2022-12-18T17:54:05.878Z,-3.83
2022-12-18T17:56:33.237Z,-3.86
2022-12-18T17:58:59.918Z,-3.88
2022-12-18T18:01:27.123Z,-3.87
2022-12-18T18:03:56.111Z,-3.82
2022-12-18T18:06:23.924Z,-3.87
2022-12-18T18:08:50.874Z,-3.88
2022-12-18T18:11:38.580Z,-3.90
2022-12-18T18:14:10.373Z,-3.91
2022-12-18T18:16:59.206Z,-3.93
2022-12-18T18:19:31.601Z,-4.01
2022-12-18T18:21:58.130Z,-3.97
2022-12-18T18:24:25.904Z,-3.92
2022-12-18T18:26:53.447Z,-3.92
2022-12-18T18:29:29.202Z,-3.96
2022-12-18T18:31:56.904Z,-3.99
2022-12-18T18:34:25.867Z,-3.94
2022-12-18T18:36:52.758Z,-3.96
2022-12-18T18:39:19.826Z,-3.90
2022-12-18T18:41:48.340Z,-3.91
2022-12-18T18:44:20.527Z,-3.93
2022-12-18T18:46:52.572Z,-3.92
2022-12-18T18:49:19.053Z,-3.90
2022-12-18T18:51:45.541Z,-3.87
2022-12-18T18:54:12.139Z,-3.91
2022-12-18T18:57:11.650Z,-3.97
2022-12-18T18:59:31.573Z,-3.98
2022-12-18T19:02:00.051Z,-3.92
2022-12-18T19:04:30.729Z,-3.96
2022-12-18T19:06:57.331Z,-3.95
2022-12-18T19:09:24.754Z,-3.97
2022-12-18T19:12:10.398Z,-3.92
2022-12-18T19:14:36.934Z,-3.95
2022-12-18T19:17:03.458Z,-3.97
2022-12-18T19:19:30.923Z,-3.95
2022-12-18T19:21:57.626Z,-3.94
2022-12-18T19:24:24.129Z,-3.96
2022-12-18T19:26:52.152Z,-3.96
2022-12-18T19:29:20.715Z,-3.93
2022-12-18T19:31:47.305Z,-3.94
2022-12-18T19:34:13.997Z,-3.96
2022-12-18T19:36:41.710Z,-3.96
2022-12-18T19:39:14.945Z,-3.94
2022-12-18T19:41:42.943Z,-3.97
2022-12-18T19:44:12.173Z,-3.97
2022-12-18T19:46:40.589Z,-3.97
2022-12-18T19:49:09.636Z,-3.98
2022-12-18T19:51:36.643Z,-3.98
2022-12-18T19:54:03.313Z,-3.90
2022-12-18T19:56:33.338Z,-3.87
2022-12-18T19:59:00.134Z,-3.90
2022-12-18T20:01:28.255Z,-3.88
2022-12-18T20:03:56.899Z,-3.85
2022-12-18T20:06:35.795Z,-3.86
2022-12-18T20:09:05.750Z,-3.86
2022-12-18T20:11:41.634Z,-3.86
2022-12-18T20:14:11.022Z,-3.86
2022-12-18T20:16:38.476Z,-3.86
2022-12-18T20:19:06.872Z,-3.85
2022-12-18T20:21:34.156Z,-3.87
2022-12-18T20:24:02.225Z,-3.87
2022-12-18T20:26:29.103Z,-3.87
2022-12-18T20:28:56.723Z,-3.85
2022-12-18T20:31:24.156Z,-3.83
2022-12-18T20:33:53.255Z,-3.86
2022-12-18T20:36:23.397Z,-3.88
2022-12-18T20:38:58.180Z,-3.87
2022-12-18T20:41:30.565Z,-3.86
2022-12-18T20:44:23.219Z,-3.86
2022-12-18T20:46:56.632Z,-3.80
2022-12-18T20:49:25.879Z,-3.81
2022-12-18T20:51:57.806Z,-3.85
2022-12-18T20:54:26.343Z,-3.82
2022-12-18T20:56:52.948Z,-3.78
2022-12-18T20:59:19.981Z,-3.80
2022-12-18T21:01:48.259Z,-3.84
2022-12-18T21:04:18.338Z,-3.81
2022-12-18T21:06:50.810Z,-3.75
2022-12-18T21:09:19.249Z,-3.77
2022-12-18T21:12:04.766Z,-3.75
2022-12-18T21:14:31.375Z,-3.72
2022-12-18T21:17:01.036Z,-3.73
2022-12-18T21:19:28.305Z,-3.74
2022-12-18T21:21:56.886Z,-3.77
2022-12-18T21:24:24.582Z,-3.71
2022-12-18T21:26:51.801Z,-3.71
2022-12-18T21:29:21.526Z,-3.69
2022-12-18T21:31:49.074Z,-3.71
2022-12-18T21:34:21.030Z,-3.75
2022-12-18T21:36:48.053Z,-3.80
2022-12-18T21:39:15.216Z,-3.83
2022-12-18T21:42:01.342Z,-3.81
2022-12-18T21:44:28.256Z,-3.78
2022-12-18T21:47:00.604Z,-3.80
2022-12-18T21:49:30.296Z,-3.78
2022-12-18T21:51:59.315Z,-3.81
2022-12-18T21:54:27.761Z,-3.78
2022-12-18T21:56:55.803Z,-3.80
2022-12-18T21:59:23.440Z,-3.77
2022-12-18T22:01:51.185Z,-3.78
2022-12-18T22:04:19.386Z,-3.77
2022-12-18T22:06:47.352Z,-3.78
2022-12-18T22:09:16.727Z,-3.74
2022-12-18T22:12:05.084Z,-3.77
2022-12-18T22:14:31.749Z,-3.78
2022-12-18T22:16:58.432Z,-3.76
2022-12-18T22:19:25.623Z,-3.74
2022-12-18T22:21:52.822Z,-3.70
2022-12-18T22:24:24.722Z,-3.72
2022-12-18T22:27:01.731Z,-3.70
2022-12-18T22:29:48.261Z,-3.72
2022-12-18T22:32:17.089Z,-3.68
2022-12-18T22:34:51.392Z,-3.63
2022-12-18T22:37:17.922Z,-3.63
2022-12-18T22:39:44.476Z,-3.62
2022-12-18T22:42:11.009Z,-3.64
2022-12-18T22:44:38.093Z,-3.62
2022-12-18T22:47:06.148Z,-3.63
2022-12-18T22:49:34.881Z,-3.66
2022-12-18T22:52:03.394Z,-3.63
2022-12-18T22:54:30.252Z,-3.64
2022-12-18T22:56:57.089Z,-3.61
2022-12-18T22:59:24.043Z,-3.60
2022-12-18T23:01:54.933Z,-3.60
2022-12-18T23:04:30.170Z,-3.62
2022-12-18T23:07:03.304Z,-3.63
2022-12-18T23:09:29.808Z,-3.61
2022-12-18T23:11:56.351Z,-3.57
2022-12-18T23:14:22.866Z,-3.58
2022-12-18T23:16:49.396Z,-3.56
2022-12-18T23:19:18.722Z,-3.57
2022-12-18T23:21:45.282Z,-3.58
2022-12-18T23:24:11.881Z,-3.53
2022-12-18T23:26:38.566Z,-3.49
2022-12-18T23:29:06.058Z,-3.48
2022-12-18T23:31:35.902Z,-3.45
2022-12-18T23:34:05.237Z,-3.45
2022-12-18T23:36:35.856Z,-3.45
2022-12-18T23:39:12.859Z,-3.47
2022-12-18T23:41:54.633Z,-3.38
2022-12-18T23:44:21.143Z,-3.39
2022-12-18T23:46:47.747Z,-3.40
2022-12-18T23:49:14.401Z,-3.40
2022-12-18T23:51:40.931Z,-3.39
2022-12-18T23:54:09.018Z,-3.41
2022-12-18T23:56:35.896Z,-3.45
2022-12-18T23:59:02.439Z,-3.42
